createdAt,value
2019-04-26T00:00:18.059Z,3.40
2019-04-26T00:04:26.880Z,3.70
2019-04-26T00:08:36.005Z,3.40
2019-04-26T00:13:05.442Z,3.87
2019-04-26T00:17:15.969Z,4.03
2019-04-26T00:21:25.310Z,3.73
2019-04-26T00:25:34.100Z,4.37
2019-04-26T00:29:43.012Z,3.90
2019-04-26T00:34:12.602Z,3.83
2019-04-26T00:38:22.417Z,4.10
2019-04-26T00:42:31.895Z,3.60
2019-04-26T00:46:43.075Z,4.00
2019-04-26T00:50:52.899Z,4.00
2019-04-26T00:55:22.372Z,3.70
2019-04-26T00:59:32.625Z,3.60
2019-04-26T01:03:41.647Z,3.60
2019-04-26T01:07:52.152Z,4.37
2019-04-26T01:12:00.818Z,4.60
2019-04-26T01:16:09.487Z,4.07
2019-04-26T01:20:20.456Z,4.03
2019-04-26T01:24:32.089Z,4.33
2019-04-26T01:28:46.171Z,4.40
2019-04-26T01:32:55.368Z,4.40
2019-04-26T01:37:04.417Z,4.73
2019-04-26T01:41:17.231Z,4.80
2019-04-26T01:45:28.308Z,4.15
2019-04-26T01:49:36.948Z,4.63
2019-04-26T01:53:48.507Z,5.80
2019-04-26T01:58:00.237Z,4.60
2019-04-26T02:02:16.577Z,5.03
2019-04-26T02:06:30.737Z,5.10
2019-04-26T02:10:35.382Z,5.40
2019-04-26T02:14:43.977Z,7.33
2019-04-26T02:18:52.557Z,5.73
2019-04-26T02:23:02.785Z,5.47
2019-04-26T02:27:13.394Z,5.17
2019-04-26T02:31:22.225Z,5.23
2019-04-26T02:35:32.138Z,5.23
2019-04-26T02:39:41.930Z,5.37
2019-04-26T02:43:53.580Z,5.23
2019-04-26T02:48:22.400Z,4.90
2019-04-26T02:52:54.772Z,5.90
2019-04-26T02:57:03.872Z,4.87
2019-04-26T03:01:12.660Z,4.90
2019-04-26T03:05:21.557Z,5.43
2019-04-26T03:09:34.727Z,5.83
2019-04-26T03:13:48.353Z,5.37
2019-04-26T03:18:19.516Z,4.90
2019-04-26T03:22:40.830Z,4.83
2019-04-26T03:27:08.853Z,5.03
2019-04-26T03:31:48.005Z,4.83
2019-04-26T03:36:00.731Z,5.67
2019-04-26T03:40:19.873Z,5.20
2019-04-26T03:44:49.758Z,5.23
2019-04-26T03:49:19.730Z,5.23
2019-04-26T03:53:31.300Z,4.60
2019-04-26T03:58:05.443Z,5.37
2019-04-26T04:02:21.429Z,5.60
2019-04-26T04:06:48.760Z,5.57
2019-04-26T04:10:48.926Z,5.87
2019-04-26T04:15:15.744Z,6.07
2019-04-26T04:20:02.073Z,5.97
2019-04-26T04:24:15.829Z,5.30
2019-04-26T04:28:33.220Z,5.57
2019-04-26T04:33:05.677Z,5.90
2019-04-26T04:37:17.300Z,6.20
2019-04-26T04:46:29.109Z,5.30
2019-04-26T04:50:43.384Z,6.10
2019-04-26T04:55:15.119Z,6.63
2019-04-26T04:59:50.285Z,6.20
2019-04-26T05:04:06.278Z,6.30
2019-04-26T05:08:17.837Z,5.80
2019-04-26T05:12:44.516Z,6.10
2019-04-26T05:17:11.350Z,5.70
2019-04-26T05:21:28.905Z,6.28
2019-04-26T05:25:58.691Z,6.67
2019-04-26T05:30:43.856Z,6.30
2019-04-26T05:35:15.203Z,5.97
2019-04-26T05:39:29.559Z,5.90
2019-04-26T05:43:49.116Z,6.30
2019-04-26T05:48:33.130Z,6.10
2019-04-26T05:53:11.965Z,6.40
2019-04-26T05:58:05.026Z,5.13
2019-04-26T06:02:46.799Z,5.33
2019-04-26T06:07:02.871Z,5.50
2019-04-26T06:11:25.455Z,6.30
2019-04-26T06:15:51.388Z,5.10
2019-04-26T06:20:24.470Z,6.67
2019-04-26T06:24:38.914Z,6.10
2019-04-26T06:29:05.429Z,6.03
2019-04-26T06:33:22.868Z,6.07
2019-04-26T06:37:39.179Z,6.17
2019-04-26T06:42:09.310Z,5.80
2019-04-26T06:47:03.961Z,5.60
2019-04-26T06:51:27.810Z,5.93
2019-04-26T06:55:47.173Z,5.90
2019-04-26T07:00:08.758Z,6.67
2019-04-26T07:04:26.292Z,5.90
2019-04-26T07:08:56.692Z,5.45
2019-04-26T07:13:18.085Z,5.90
2019-04-26T07:18:02.095Z,5.57
2019-04-26T07:22:35.478Z,5.77
2019-04-26T07:27:05.232Z,5.90
2019-04-26T07:31:31.613Z,5.90
2019-04-26T07:35:46.097Z,6.33
2019-04-26T07:40:11.460Z,7.00
2019-04-26T07:44:33.773Z,6.50
2019-04-26T07:49:10.179Z,6.17
2019-04-26T07:53:48.957Z,6.80
2019-04-26T07:58:19.959Z,6.60
2019-04-26T08:02:59.925Z,6.33
2019-04-26T08:07:17.724Z,6.40
2019-04-26T08:11:38.098Z,6.70
2019-04-26T08:16:01.980Z,6.03
2019-04-26T08:20:39.144Z,6.23
2019-04-26T08:24:51.487Z,7.27
2019-04-26T08:29:03.298Z,7.33
2019-04-26T08:33:14.686Z,5.93
2019-04-26T08:37:28.235Z,7.03
2019-04-26T08:41:39.144Z,7.70
2019-04-26T08:46:12.528Z,6.73
2019-04-26T08:50:24.798Z,6.90
2019-04-26T08:54:37.421Z,7.40
2019-04-26T08:59:08.545Z,7.90
2019-04-26T09:03:32.790Z,7.70
2019-04-26T09:07:44.345Z,8.57
2019-04-26T09:11:59.758Z,7.75
2019-04-26T09:16:08.760Z,6.93
2019-04-26T09:20:28.236Z,6.90
2019-04-26T09:24:45.664Z,9.37
2019-04-26T09:29:12.293Z,6.70
2019-04-26T09:33:38.872Z,7.80
2019-04-26T09:37:47.446Z,7.73
2019-04-26T09:41:57.595Z,7.57
2019-04-26T09:46:07.741Z,8.67
2019-04-26T09:50:20.691Z,8.90
2019-04-26T09:54:29.476Z,7.73
2019-04-26T09:58:37.932Z,6.87
2019-04-26T10:02:46.398Z,7.17
2019-04-26T10:06:55.268Z,7.97
2019-04-26T10:11:05.812Z,7.57
2019-04-26T10:15:22.562Z,7.37
2019-04-26T10:19:33.388Z,7.50
2019-04-26T10:23:41.914Z,8.43
2019-04-26T10:27:50.355Z,7.27
2019-04-26T10:31:58.834Z,6.87
2019-04-26T10:36:07.550Z,7.40
2019-04-26T10:40:16.283Z,6.80
2019-04-26T10:44:24.794Z,7.00
2019-04-26T10:48:33.346Z,8.13
2019-04-26T10:52:49.477Z,8.57
2019-04-26T10:56:55.712Z,7.57
2019-04-26T11:01:08.909Z,7.23
2019-04-26T11:05:19.224Z,6.60
2019-04-26T11:09:27.592Z,6.37
2019-04-26T11:13:36.511Z,7.30
2019-04-26T11:17:46.045Z,6.50
2019-04-26T11:21:55.801Z,6.33
2019-04-26T11:26:04.819Z,6.87
2019-04-26T11:30:20.518Z,6.53
2019-04-26T11:34:25.169Z,7.30
2019-04-26T11:38:34.144Z,7.83
2019-04-26T11:42:45.751Z,6.60
2019-04-26T11:46:52.849Z,7.40
2019-04-26T11:51:01.395Z,5.43
2019-04-26T11:55:09.929Z,5.43
2019-04-26T11:59:18.424Z,5.13
2019-04-26T12:03:27.174Z,5.43
2019-04-26T12:07:37.544Z,6.23
2019-04-26T12:11:50.970Z,5.70
2019-04-26T12:15:56.218Z,5.50
2019-04-26T12:20:05.812Z,5.60
2019-04-26T12:24:14.288Z,5.23
2019-04-26T12:28:22.758Z,5.00
2019-04-26T12:32:31.253Z,4.77
2019-04-26T12:36:39.978Z,4.67
2019-04-26T12:40:48.425Z,5.23
2019-04-26T12:45:16.797Z,5.50
2019-04-26T12:49:25.447Z,4.58
2019-04-26T12:53:33.933Z,5.93
2019-04-26T12:57:42.501Z,5.63
2019-04-26T13:01:50.950Z,4.67
2019-04-26T13:05:59.455Z,5.10
2019-04-26T13:10:26.608Z,4.77
2019-04-26T13:14:42.965Z,4.90
2019-04-26T13:18:50.130Z,5.10
2019-04-26T13:22:58.905Z,4.80
2019-04-26T13:27:10.625Z,6.40
2019-04-26T13:31:17.608Z,6.10
2019-04-26T13:35:26.083Z,6.20
2019-04-26T13:39:34.885Z,5.97
2019-04-26T13:43:44.708Z,5.80
2019-04-26T13:48:11.361Z,6.17
2019-04-26T13:52:20.089Z,6.03
2019-04-26T13:56:32.134Z,5.77
2019-04-26T14:00:39.749Z,6.03
2019-04-26T14:04:49.534Z,6.23
2019-04-26T14:09:02.718Z,6.40
2019-04-26T14:13:08.238Z,6.17
2019-04-26T14:17:16.693Z,5.13
2019-04-26T14:21:25.236Z,6.30
2019-04-26T14:25:50.338Z,6.70
2019-04-26T14:30:02.408Z,7.17
2019-04-26T14:34:11.873Z,7.00
2019-04-26T14:38:27.702Z,7.30
2019-04-26T14:42:35.206Z,7.03
2019-04-26T14:46:48.545Z,7.07
2019-04-26T14:50:49.804Z,6.77
2019-04-26T14:54:58.300Z,6.73
2019-04-26T14:59:08.156Z,6.50
2019-04-26T15:03:20.878Z,7.17
2019-04-26T15:07:32.466Z,6.60
2019-04-26T15:11:51.171Z,5.53
2019-04-26T15:15:49.247Z,5.57
2019-04-26T15:20:20.798Z,7.17
2019-04-26T15:24:30.076Z,6.40
2019-04-26T15:28:37.685Z,5.77
2019-04-26T15:32:46.172Z,7.37
2019-04-26T15:36:54.651Z,7.50
2019-04-26T15:41:22.291Z,7.30
2019-04-26T15:45:42.432Z,6.60
2019-04-26T15:49:52.977Z,6.60
2019-04-26T15:54:01.569Z,7.03
2019-04-26T15:58:10.055Z,6.70
2019-04-26T16:02:22.521Z,9.03
2019-04-26T16:06:28.733Z,7.53
2019-04-26T16:10:38.435Z,6.80
2019-04-26T16:14:48.019Z,5.80
2019-04-26T16:18:57.290Z,6.30
2019-04-26T16:23:07.333Z,5.90
2019-04-26T16:27:15.957Z,6.13
2019-04-26T16:31:26.167Z,7.30
2019-04-26T16:35:35.780Z,5.03
2019-04-26T16:39:48.426Z,4.97
2019-04-26T16:43:54.672Z,6.07
2019-04-26T16:48:03.428Z,5.23
2019-04-26T16:52:17.270Z,4.50
2019-04-26T16:56:28.116Z,4.40
2019-04-26T17:00:50.250Z,5.27
2019-04-26T17:04:46.790Z,5.77
2019-04-26T17:09:01.088Z,5.70
2019-04-26T17:13:05.527Z,5.77
2019-04-26T17:17:14.292Z,6.17
2019-04-26T17:21:25.716Z,6.27
2019-04-26T17:25:42.155Z,4.83
2019-04-26T17:29:50.671Z,4.70
2019-04-26T17:33:59.188Z,5.20
2019-04-26T17:38:07.692Z,6.00
2019-04-26T17:42:16.188Z,5.77
2019-04-26T17:46:24.624Z,4.87
2019-04-26T17:50:35.307Z,5.50
2019-04-26T17:54:47.508Z,4.80
2019-04-26T17:58:54.738Z,4.70
2019-04-26T18:03:07.342Z,5.00
2019-04-26T18:07:37.771Z,5.20
2019-04-26T18:11:25.013Z,5.87
2019-04-26T18:15:35.644Z,5.20
2019-04-26T18:19:45.870Z,5.83
2019-04-26T18:23:57.182Z,6.95
2019-04-26T18:28:04.723Z,6.40
2019-04-26T18:32:13.296Z,6.40
2019-04-26T18:36:23.513Z,7.77
2019-04-26T18:40:35.414Z,5.80
2019-04-26T18:44:47.345Z,6.53
2019-04-26T18:48:53.512Z,6.80
2019-04-26T18:53:03.744Z,6.43
2019-04-26T18:57:15.544Z,6.70
2019-04-26T19:01:22.451Z,6.60
2019-04-26T19:05:30.990Z,6.40
2019-04-26T19:09:56.751Z,7.17
2019-04-26T19:13:56.324Z,8.93
2019-04-26T19:18:06.067Z,8.23
2019-04-26T19:22:17.033Z,8.30
2019-04-26T19:26:33.014Z,7.73
2019-04-26T19:30:39.916Z,8.20
2019-04-26T19:34:46.750Z,9.00
2019-04-26T19:38:55.255Z,8.10
2019-04-26T19:43:07.911Z,9.60
2019-04-26T19:47:15.822Z,10.17
2019-04-26T19:51:37.923Z,9.10
2019-04-26T19:55:51.434Z,9.97
2019-04-26T20:00:03.751Z,9.20
2019-04-26T20:04:11.263Z,11.03
2019-04-26T20:08:21.550Z,11.07
2019-04-26T20:12:35.174Z,10.27
2019-04-26T20:16:43.309Z,9.40
2019-04-26T20:20:52.122Z,10.87
2019-04-26T20:25:02.446Z,10.40
2019-04-26T20:29:11.770Z,10.40
2019-04-26T20:33:20.356Z,11.20
2019-04-26T20:37:28.898Z,9.73
2019-04-26T20:41:37.390Z,10.70
2019-04-26T20:46:07.716Z,10.10
2019-04-26T20:50:01.279Z,10.70
2019-04-26T20:54:06.373Z,9.90
2019-04-26T20:58:14.877Z,10.07
2019-04-26T21:02:24.811Z,11.80
2019-04-26T21:06:36.839Z,10.43
2019-04-26T21:10:43.668Z,11.10
2019-04-26T21:14:53.552Z,12.77
2019-04-26T21:19:02.297Z,10.80
2019-04-26T21:23:13.169Z,10.67
2019-04-26T21:27:25.992Z,9.97
2019-04-26T21:31:40.867Z,10.53
2019-04-26T21:35:48.988Z,9.97
2019-04-26T21:39:59.201Z,11.00
2019-04-26T21:44:11.692Z,9.33
2019-04-26T21:48:18.391Z,8.40
2019-04-26T21:52:29.211Z,8.07
2019-04-26T21:56:37.144Z,8.63
2019-04-26T22:00:50.343Z,8.17
2019-04-26T22:04:58.806Z,7.73
2019-04-26T22:13:55.863Z,7.43
2019-04-26T22:18:15.278Z,5.55
2019-04-26T22:22:37.538Z,6.40
2019-04-26T22:26:48.087Z,5.00
2019-04-26T22:30:59.340Z,5.47
2019-04-26T22:35:06.997Z,6.17
2019-04-26T22:39:17.355Z,5.20
2019-04-26T22:43:29.884Z,7.30
2019-04-26T22:47:42.401Z,6.50
2019-04-26T22:51:50.255Z,4.83
2019-04-26T22:56:01.346Z,5.17
2019-04-26T23:00:09.206Z,4.77
2019-04-26T23:04:24.976Z,5.47
2019-04-26T23:08:30.793Z,5.60
2019-04-26T23:12:39.874Z,5.00
2019-04-26T23:17:05.658Z,5.37
2019-04-26T23:21:11.936Z,5.30
2019-04-26T23:25:18.378Z,4.63
2019-04-26T23:29:26.941Z,5.20
2019-04-26T23:33:35.452Z,4.90
2019-04-26T23:37:43.975Z,5.03
2019-04-26T23:41:53.953Z,4.63
2019-04-26T23:46:02.781Z,5.03
2019-04-26T23:50:11.334Z,4.10
2019-04-26T23:54:19.795Z,4.63
2019-04-26T23:58:28.250Z,4.30
